createdAt,value
2023-05-04T11:07:12.575Z,18.3988
2023-05-04T11:08:12.908Z,18.4271
2023-05-04T11:09:12.876Z,18.3606
2023-05-04T11:10:13.132Z,18.3810
2023-05-04T11:11:13.468Z,18.4263
2023-05-04T11:12:13.652Z,18.4591
2023-05-04T11:13:14.011Z,18.4463
2023-05-04T11:14:14.223Z,18.4741
2023-05-04T11:15:15.034Z,18.5384
2023-05-04T11:16:15.556Z,18.5446
2023-05-04T11:17:28.310Z,18.7656
2023-05-04T11:18:19.733Z,18.8703
2023-05-04T11:19:20.026Z,18.8593
2023-05-04T11:20:20.243Z,18.7990
2023-05-04T11:21:20.323Z,18.8310
2023-05-04T11:22:20.604Z,18.6700
2023-05-04T11:23:20.573Z,18.7477
2023-05-04T11:24:20.772Z,18.7950
2023-05-04T11:25:21.964Z,19.0359
2023-05-04T11:26:22.589Z,19.3308
2023-05-04T11:27:22.869Z,19.3654
2023-05-04T11:28:24.073Z,19.3818
2023-05-04T11:29:24.464Z,19.4517
2023-05-04T11:30:24.830Z,19.3123
2023-05-04T11:31:25.750Z,19.6422
2023-05-04T11:32:25.928Z,19.3893
2023-05-04T11:33:26.419Z,19.4458
2023-05-04T11:34:26.581Z,19.5599
2023-05-04T11:35:26.691Z,19.8271
2023-05-04T11:36:27.291Z,19.9012
2023-05-04T11:37:27.430Z,19.9836
2023-05-04T11:38:27.588Z,20.1477
2023-05-04T11:39:27.890Z,20.0972
2023-05-04T11:40:28.797Z,20.7727
2023-05-04T11:41:29.052Z,21.0791
2023-05-04T11:42:29.600Z,20.8723
2023-05-04T11:43:29.690Z,20.6991
2023-05-04T11:44:29.800Z,20.5301
2023-05-04T11:45:29.946Z,20.6250
2023-05-04T11:46:30.208Z,21.1494
2023-05-04T11:47:30.825Z,21.6640
2023-05-04T11:48:31.229Z,21.6462
2023-05-04T11:49:31.448Z,21.6480
2023-05-04T11:50:31.830Z,21.8330
2023-05-04T11:51:31.924Z,21.6881
2023-05-04T11:52:32.184Z,21.3193
2023-05-04T11:53:32.944Z,21.6281
2023-05-04T11:54:32.943Z,21.3713
2023-05-04T11:55:33.613Z,22.1891
2023-05-04T11:56:33.737Z,22.6483
2023-05-04T11:57:33.891Z,23.1582
2023-05-04T11:58:34.199Z,23.3075
2023-05-04T11:59:34.224Z,23.2160
2023-05-04T12:00:34.667Z,22.7905
2023-05-04T12:01:35.550Z,22.9514
2023-05-04T12:02:35.739Z,22.9081
2023-05-04T12:03:53.175Z,23.5182
2023-05-04T12:04:41.025Z,23.5009
2023-05-04T12:05:41.362Z,23.8904
2023-05-04T12:06:41.696Z,23.7664
2023-05-04T12:07:42.080Z,23.0013
2023-05-04T12:08:42.420Z,23.3188
2023-05-04T12:09:42.810Z,24.1041
2023-05-04T12:10:43.177Z,23.5652
2023-05-04T12:11:43.426Z,23.9278
2023-05-04T12:12:44.616Z,24.9240
2023-05-04T12:13:44.925Z,25.2483
2023-05-04T12:14:45.239Z,25.8721
2023-05-04T12:15:45.351Z,24.2740
2023-05-04T12:16:45.879Z,23.8708
2023-05-04T12:17:46.316Z,24.0857
2023-05-04T12:18:46.415Z,23.7864
2023-05-04T12:19:46.705Z,24.4633
2023-05-04T12:20:47.061Z,24.1434
2023-05-04T12:21:48.278Z,23.8867
2023-05-04T12:22:48.563Z,23.8792
2023-05-04T12:23:48.909Z,24.0193
2023-05-04T12:24:48.947Z,23.7351
2023-05-04T12:25:58.020Z,24.3136
2023-05-04T12:26:53.498Z,23.9425
2023-05-04T12:27:53.670Z,24.1898
2023-05-04T12:28:53.922Z,24.6124
2023-05-04T12:32:54.935Z,23.2429
2023-05-04T12:33:55.261Z,23.8366
2023-05-04T12:34:55.292Z,23.2646
2023-05-04T12:35:55.612Z,23.2128
2023-05-04T12:36:55.773Z,23.4636
2023-05-04T12:37:55.987Z,23.9314
2023-05-04T12:38:56.269Z,24.1706
2023-05-04T12:39:56.451Z,23.7868
2023-05-04T12:40:56.521Z,23.4798
2023-05-04T12:41:56.849Z,24.3667
2023-05-04T12:42:56.976Z,23.9188
2023-05-04T12:43:57.047Z,24.6372
2023-05-04T12:44:57.329Z,24.9430
2023-05-04T12:45:57.916Z,25.0672
2023-05-04T12:46:58.764Z,25.4113
2023-05-04T12:47:59.007Z,25.5162
2023-05-04T12:48:59.447Z,25.6932
2023-05-04T12:50:00.059Z,25.4359
2023-05-04T12:51:00.310Z,25.2523
2023-05-04T12:52:00.336Z,25.2536
2023-05-04T12:53:00.608Z,25.3203
2023-05-04T12:54:00.851Z,25.2571
2023-05-04T12:55:01.172Z,25.0744
2023-05-04T12:56:01.805Z,24.6659
2023-05-04T12:57:03.014Z,24.6086
2023-05-04T12:58:03.170Z,24.6680
2023-05-04T12:59:03.661Z,25.0212
2023-05-04T13:00:03.863Z,25.4137
2023-05-04T13:01:04.678Z,27.0632
2023-05-04T13:02:05.257Z,26.0619
2023-05-04T13:03:06.192Z,25.1362
2023-05-04T13:04:06.802Z,25.0993
2023-05-04T13:05:07.191Z,25.4743
2023-05-04T13:06:08.163Z,25.5007
2023-05-04T13:07:08.582Z,26.2558
2023-05-04T13:08:08.820Z,25.7853
2023-05-04T13:09:09.176Z,26.8001
2023-05-04T13:10:09.737Z,26.6158
2023-05-04T13:11:09.916Z,27.1319
2023-05-04T13:12:10.662Z,26.2674
2023-05-04T13:13:11.114Z,24.8409
2023-05-04T13:14:11.418Z,25.4923
2023-05-04T13:15:11.667Z,24.3819
2023-05-04T13:16:11.999Z,24.6720
2023-05-04T13:17:12.745Z,25.5445
2023-05-04T13:18:13.353Z,25.3943
2023-05-04T13:19:13.633Z,25.8871
2023-05-04T13:20:14.034Z,25.5861
2023-05-04T13:21:14.626Z,25.2147
2023-05-04T13:22:14.849Z,24.8439
2023-05-04T13:23:15.369Z,24.8030
2023-05-04T13:24:15.660Z,24.5836
2023-05-04T13:25:16.499Z,24.6407
2023-05-04T13:26:16.857Z,24.7236
2023-05-04T13:27:16.985Z,24.6733
2023-05-04T13:28:17.392Z,24.4629
2023-05-04T13:29:17.746Z,24.6190
2023-05-04T13:30:18.097Z,24.9013
2023-05-04T13:31:18.525Z,24.5192
2023-05-04T13:32:19.265Z,24.5132
2023-05-04T13:33:28.808Z,24.9225
2023-05-04T13:34:20.287Z,24.9754
2023-05-04T13:35:20.972Z,25.0087
2023-05-04T13:36:22.150Z,25.0462
2023-05-04T13:37:22.414Z,24.8696
2023-05-04T13:38:22.795Z,25.0377
2023-05-04T13:39:23.027Z,24.8010
2023-05-04T13:40:23.306Z,24.8603
2023-05-04T13:41:23.565Z,24.8824
2023-05-04T13:42:23.654Z,25.1687
2023-05-04T13:43:24.779Z,24.4066
2023-05-04T13:44:25.089Z,24.5088
2023-05-04T13:45:25.899Z,24.6640
2023-05-04T13:46:26.218Z,24.6491
2023-05-04T13:47:26.705Z,23.9271
2023-05-04T13:48:27.526Z,24.3586
2023-05-04T13:49:27.838Z,23.8857
2023-05-04T13:50:27.914Z,23.7587
2023-05-04T13:51:28.228Z,23.8408
2023-05-04T13:52:28.588Z,24.0079
2023-05-04T13:53:28.733Z,24.0997
2023-05-04T13:54:30.011Z,24.1642
2023-05-04T13:55:30.683Z,24.1593
2023-05-04T13:56:30.778Z,24.1825
2023-05-04T13:57:31.033Z,24.2415
2023-05-04T13:58:31.307Z,24.5450
2023-05-04T13:59:31.421Z,24.5341
2023-05-04T14:00:31.992Z,24.3810
2023-05-04T14:01:32.275Z,24.5684
2023-05-04T14:02:33.386Z,24.8964
2023-05-04T14:03:34.201Z,25.1191
2023-05-04T14:04:34.970Z,25.1531
2023-05-04T14:05:34.850Z,24.6896
2023-05-04T14:06:35.051Z,24.9095
2023-05-04T14:07:35.094Z,24.7384
2023-05-04T14:08:35.418Z,24.7667
2023-05-04T14:09:35.735Z,24.8497
2023-05-04T14:10:37.257Z,24.6053
2023-05-04T14:11:36.623Z,24.7693
2023-05-04T14:12:36.811Z,24.7734
2023-05-04T14:13:37.284Z,24.9251
2023-05-04T14:14:37.582Z,24.8363
2023-05-04T14:15:38.082Z,24.9039
2023-05-04T14:16:39.305Z,24.7941
2023-05-04T14:17:39.897Z,25.0328
2023-05-04T14:18:40.381Z,25.1716
2023-05-04T14:19:40.695Z,25.0645
2023-05-04T14:20:41.206Z,25.0071
2023-05-04T14:21:41.351Z,24.8700
2023-05-04T14:22:41.527Z,24.8498
2023-05-04T14:23:41.678Z,24.9563
2023-05-04T14:24:42.044Z,24.8643
2023-05-04T14:25:42.856Z,25.0118
2023-05-04T14:26:43.158Z,25.6216
2023-05-04T14:27:43.478Z,25.3656
2023-05-04T14:28:43.976Z,24.8424
2023-05-04T14:29:46.421Z,25.3242
2023-05-04T14:30:45.358Z,25.3178
2023-05-04T14:31:45.675Z,25.6888
2023-05-04T14:32:46.247Z,25.6428
2023-05-04T14:33:46.652Z,25.5967
2023-05-04T14:34:46.751Z,25.3645
2023-05-04T14:35:48.293Z,25.5339
2023-05-04T14:36:47.412Z,25.5948
2023-05-04T14:37:47.724Z,25.4883
2023-05-04T14:38:48.036Z,25.5384
2023-05-04T14:39:48.208Z,25.3261
2023-05-04T14:40:49.810Z,25.1600
2023-05-04T14:41:50.434Z,25.0301
2023-05-04T14:42:50.571Z,25.4455
2023-05-04T14:43:51.102Z,25.2294
2023-05-04T14:44:51.349Z,25.0875
2023-05-04T14:45:51.642Z,24.8931
2023-05-04T14:46:52.040Z,24.4910
2023-05-04T14:47:52.448Z,24.1924
2023-05-04T14:48:52.871Z,24.0836
2023-05-04T14:49:53.988Z,24.0993
2023-05-04T14:50:54.479Z,24.0695
2023-05-04T14:51:54.966Z,24.4999
2023-05-04T14:52:55.416Z,24.8635
2023-05-04T14:53:55.647Z,25.0215
2023-05-04T14:54:55.927Z,24.6044
2023-05-04T14:55:56.259Z,24.9832
2023-05-04T14:56:57.603Z,25.0481
2023-05-04T14:57:58.070Z,24.9751
2023-05-04T14:58:58.491Z,24.9631
2023-05-04T14:59:58.625Z,24.8627
2023-05-04T15:00:59.634Z,25.0122
2023-05-04T15:02:00.154Z,25.1082
2023-05-04T15:03:01.040Z,25.0560
2023-05-04T15:04:01.108Z,25.1046
2023-05-04T15:05:01.246Z,24.9888
2023-05-04T15:06:01.588Z,24.8288
2023-05-04T15:07:01.769Z,24.3611
2023-05-04T15:08:02.441Z,23.6512
2023-05-04T15:09:02.874Z,23.5267
2023-05-04T15:10:03.160Z,23.6509
2023-05-04T15:11:04.198Z,23.7562
2023-05-04T15:12:04.742Z,24.3912
2023-05-04T15:13:04.926Z,24.4688
2023-05-04T15:14:05.386Z,24.4845
2023-05-04T15:15:05.606Z,24.6069
2023-05-04T15:16:06.015Z,24.7158
2023-05-04T15:17:06.747Z,24.6568
2023-05-04T15:18:07.151Z,24.8381
2023-05-04T15:19:07.633Z,24.7895
2023-05-04T15:20:08.739Z,24.6851
2023-05-04T15:21:09.373Z,24.4757
2023-05-04T15:22:09.837Z,24.3537
2023-05-04T15:23:10.286Z,24.3093
2023-05-04T15:24:10.415Z,24.1981
2023-05-04T15:25:11.082Z,23.6429
2023-05-04T15:26:11.245Z,23.8227
2023-05-04T15:27:11.652Z,23.9606
2023-05-04T15:28:12.252Z,24.2943
2023-05-04T15:29:13.513Z,23.9760
2023-05-04T15:30:13.891Z,23.7427
2023-05-04T15:31:14.531Z,23.7639
2023-05-04T15:32:14.948Z,23.5864
2023-05-04T15:33:15.729Z,24.0123
2023-05-04T15:34:20.044Z,24.1259
2023-05-04T15:35:20.518Z,23.6566
2023-05-04T15:36:20.864Z,23.5780
2023-05-04T15:37:21.372Z,23.5733
2023-05-04T15:38:21.927Z,23.3716
2023-05-04T15:39:22.161Z,23.4414
2023-05-04T15:40:22.760Z,23.3424
2023-05-04T15:41:23.726Z,23.3134
2023-05-04T15:42:24.096Z,23.3297
2023-05-04T15:43:24.493Z,23.7555
2023-05-04T15:44:24.904Z,23.4041
2023-05-04T15:45:25.293Z,23.3075
2023-05-04T15:46:25.542Z,23.2670
2023-05-04T15:47:26.514Z,23.3865
2023-05-04T15:48:27.041Z,23.2859
2023-05-04T15:49:27.301Z,23.4935
2023-05-04T15:50:28.232Z,23.6557
2023-05-04T15:51:28.673Z,23.8056
2023-05-04T15:52:28.953Z,23.9184
2023-05-04T15:53:29.457Z,23.8936
2023-05-04T15:54:30.063Z,24.0144
2023-05-04T15:55:31.064Z,23.9902
2023-05-04T15:56:31.826Z,23.9674
2023-05-04T15:57:32.295Z,23.8407
2023-05-04T15:58:32.506Z,23.8630
2023-05-04T15:59:33.169Z,23.3126
2023-05-04T16:00:33.765Z,23.1806
2023-05-04T16:01:34.192Z,23.3094
2023-05-04T16:02:35.016Z,23.3329
2023-05-04T16:03:35.907Z,23.4055
2023-05-04T16:04:36.608Z,23.2894
2023-05-04T16:05:37.202Z,23.3373
2023-05-04T16:06:37.458Z,23.6436
2023-05-04T16:07:37.698Z,23.5642
2023-05-04T16:08:38.115Z,23.4855
2023-05-04T16:09:39.391Z,23.3677
2023-05-04T16:11:39.226Z,23.2494
2023-05-04T16:12:39.976Z,23.1826
2023-05-04T16:13:40.961Z,23.1855
2023-05-04T16:14:41.141Z,23.1106
2023-05-04T16:15:41.765Z,23.2348
2023-05-04T16:16:42.350Z,23.3008
2023-05-04T16:17:42.969Z,22.9525
2023-05-04T16:18:43.513Z,23.0918
2023-05-04T16:19:44.595Z,22.8110
2023-05-04T16:20:45.794Z,22.7955
2023-05-04T16:21:46.924Z,22.9681
2023-05-04T16:22:47.461Z,23.0463
2023-05-04T16:23:47.776Z,22.9586
2023-05-04T16:24:48.445Z,22.8487
2023-05-04T16:25:48.855Z,22.7625
2023-05-04T16:26:50.014Z,22.7154
2023-05-04T16:27:50.577Z,22.5384
2023-05-04T16:28:50.936Z,22.4349
2023-05-04T16:29:51.434Z,22.4902
2023-05-04T16:30:52.520Z,22.5314
2023-05-04T16:31:53.164Z,22.6198
2023-05-04T16:32:53.293Z,22.8223
2023-05-04T16:33:54.094Z,22.9195
2023-05-04T16:34:54.253Z,22.9709
2023-05-04T16:35:54.929Z,23.1016
2023-05-04T16:36:55.188Z,23.0308
2023-05-04T16:37:55.382Z,22.9569
2023-05-04T16:38:56.093Z,22.7543
2023-05-04T16:39:56.330Z,22.4828
2023-05-04T16:40:56.788Z,22.5963
2023-05-04T16:41:58.100Z,22.7102
2023-05-04T16:42:59.376Z,22.7510
2023-05-04T16:44:00.141Z,22.7375
2023-05-04T16:45:00.619Z,22.6811
2023-05-04T16:46:01.044Z,22.6876
2023-05-04T16:47:01.712Z,22.5580
2023-05-04T16:48:02.268Z,22.5509
2023-05-04T16:49:02.996Z,22.7108
2023-05-04T16:50:03.400Z,22.8475
2023-05-04T16:51:04.008Z,22.8660
2023-05-04T16:52:04.669Z,22.9069
2023-05-04T16:53:05.541Z,22.8440
2023-05-04T16:54:05.770Z,22.9618
2023-05-04T16:55:08.484Z,22.8825
2023-05-04T16:56:07.182Z,22.8573
2023-05-04T16:57:07.755Z,22.8278
2023-05-04T16:58:07.745Z,22.8225
2023-05-04T16:59:08.418Z,22.8928
2023-05-04T17:00:08.969Z,22.8488
2023-05-04T17:01:11.116Z,22.8591
2023-05-04T17:02:10.354Z,22.8533
2023-05-04T17:03:10.271Z,22.7810
2023-05-04T17:04:10.513Z,22.8004
2023-05-04T17:05:10.937Z,22.7955
2023-05-04T17:06:11.928Z,22.7150
2023-05-04T17:07:12.863Z,22.6830
2023-05-04T17:08:13.207Z,22.6592
2023-05-04T17:09:14.881Z,22.6355
2023-05-04T17:10:14.060Z,22.5052
2023-05-04T17:11:15.119Z,22.4092
2023-05-04T17:12:16.238Z,22.5294
2023-05-04T17:13:16.796Z,22.5346
2023-05-04T17:14:17.912Z,22.5446
2023-05-04T17:15:18.598Z,22.5583
2023-05-04T17:16:18.679Z,22.5546
2023-05-04T17:17:18.802Z,22.4833
2023-05-04T17:18:19.590Z,22.5409
2023-05-04T17:19:20.241Z,22.4207
2023-05-04T17:20:21.368Z,22.3195
2023-05-04T17:21:22.300Z,22.3403
2023-05-04T17:22:22.869Z,22.4653
2023-05-04T17:23:23.754Z,22.3956
2023-05-04T17:24:24.461Z,22.3534
2023-05-04T17:25:25.181Z,22.3844
2023-05-04T17:26:25.793Z,22.2098
2023-05-04T17:27:26.223Z,22.1321
2023-05-04T17:28:27.199Z,22.2371
2023-05-04T17:29:27.654Z,22.2128
2023-05-04T17:30:28.213Z,22.1556
2023-05-04T17:31:29.488Z,22.1300
2023-05-04T17:32:30.329Z,22.0744
2023-05-04T17:33:30.645Z,22.0380
2023-05-04T17:34:31.176Z,22.0664
2023-05-04T17:35:31.572Z,22.1133
2023-05-04T17:36:32.535Z,22.1114
2023-05-04T17:37:33.361Z,22.1154
2023-05-04T17:38:34.393Z,22.0189
2023-05-04T17:39:35.019Z,22.0565
2023-05-04T17:40:35.720Z,22.0804
2023-05-04T17:41:36.850Z,22.0769
2023-05-04T17:42:37.744Z,22.0847
2023-05-04T17:43:38.286Z,22.0745
2023-05-04T17:44:38.926Z,22.0744
2023-05-04T17:45:39.448Z,22.0983
2023-05-04T17:46:40.892Z,22.0924
2023-05-04T17:48:41.340Z,21.9907
2023-05-04T17:49:42.011Z,21.9050
2023-05-04T17:50:42.436Z,21.8136
2023-05-04T17:51:43.491Z,21.7167
2023-05-04T17:52:43.877Z,21.6463
2023-05-04T17:53:45.826Z,21.4878
2023-05-04T17:55:45.308Z,21.2777
2023-05-04T17:56:45.839Z,21.0696
2023-05-04T17:57:46.504Z,21.0389
2023-05-04T17:58:46.797Z,21.0756
2023-05-04T17:59:47.392Z,20.9136
2023-05-04T18:00:48.673Z,20.7481
2023-05-04T18:01:48.223Z,20.8819
2023-05-04T18:02:49.314Z,20.6875
2023-05-04T18:03:49.520Z,20.5770
2023-05-04T18:04:50.316Z,20.4643
2023-05-04T18:05:51.007Z,20.3035
2023-05-04T18:06:51.404Z,20.4078
2023-05-04T18:07:51.866Z,20.2571
2023-05-04T18:08:51.946Z,20.0895
2023-05-04T18:09:52.542Z,20.0970
2023-05-04T18:10:52.840Z,19.9904
2023-05-04T18:11:53.901Z,20.0327
2023-05-04T18:13:54.605Z,19.7943
2023-05-04T18:14:55.363Z,19.7636
2023-05-04T18:15:56.089Z,19.7488
2023-05-04T18:16:57.108Z,19.7158
2023-05-04T18:17:57.876Z,19.7346
2023-05-04T18:19:00.446Z,19.6707
2023-05-04T18:20:01.314Z,19.6926
2023-05-04T18:21:01.684Z,19.6760
2023-05-04T18:22:02.928Z,19.5788
2023-05-04T18:23:03.585Z,19.6316
2023-05-04T18:24:04.164Z,19.8650
2023-05-04T18:25:04.630Z,19.7685
2023-05-04T18:26:05.144Z,19.6893
2023-05-04T18:27:06.249Z,19.5563
2023-05-04T18:28:06.978Z,19.5020
2023-05-04T18:29:17.824Z,19.4455
2023-05-04T18:30:08.476Z,19.3668
2023-05-04T18:31:08.390Z,19.3969
2023-05-04T18:32:08.984Z,19.2434
2023-05-04T18:33:09.948Z,19.0995
2023-05-04T18:34:10.911Z,19.0299
2023-05-04T18:35:11.119Z,18.9325
2023-05-04T18:36:11.149Z,18.9654
2023-05-04T18:37:11.537Z,18.8297
2023-05-04T18:38:12.518Z,18.8180
2023-05-04T18:39:13.248Z,18.7003
2023-05-04T18:40:14.417Z,18.6457
2023-05-04T18:41:15.609Z,18.6019
2023-05-04T18:42:16.671Z,18.5303
2023-05-04T18:43:17.529Z,18.4769
2023-05-04T18:44:18.133Z,18.4058
2023-05-04T18:45:19.029Z,18.4079
2023-05-04T18:46:19.889Z,18.4695
2023-05-04T18:47:20.878Z,18.3298
2023-05-04T18:48:21.138Z,18.3182
2023-05-04T18:49:21.455Z,18.2987
2023-05-04T18:50:21.741Z,18.2148
2023-05-04T18:51:22.210Z,18.1777
2023-05-04T18:52:22.703Z,18.1226
2023-05-04T18:53:23.424Z,18.1061
2023-05-04T18:54:24.063Z,18.0784
2023-05-04T18:55:24.614Z,18.1055
2023-05-04T18:56:25.081Z,18.1694
2023-05-04T18:57:26.206Z,18.2179
2023-05-04T18:58:26.165Z,18.3722
2023-05-04T18:59:26.824Z,18.4014
2023-05-04T19:00:28.308Z,18.5052
2023-05-04T19:01:29.453Z,18.5386
2023-05-04T19:02:29.490Z,18.6070
2023-05-04T19:03:30.752Z,18.8153
2023-05-04T19:04:31.689Z,18.8905
2023-05-04T19:05:32.220Z,18.7736
2023-05-04T19:06:32.693Z,18.8332
2023-05-04T19:07:33.562Z,18.8304
2023-05-04T19:08:34.717Z,18.8087
2023-05-04T19:09:35.246Z,18.7906
2023-05-04T19:10:35.770Z,18.8105
2023-05-04T19:11:36.002Z,18.7996
2023-05-04T19:12:36.777Z,18.7345
2023-05-04T19:13:37.641Z,18.8326
2023-05-04T19:14:38.909Z,18.7533
2023-05-04T19:15:39.485Z,18.7729
2023-05-04T19:16:40.288Z,18.7782
2023-05-04T19:17:40.668Z,18.8189
2023-05-04T19:18:41.490Z,18.8918
2023-05-04T19:19:42.287Z,18.8953
2023-05-04T19:20:42.633Z,18.9794
2023-05-04T19:21:43.319Z,18.9330
2023-05-04T19:22:43.864Z,18.8556
2023-05-04T19:23:44.254Z,18.8737
2023-05-04T19:24:44.796Z,18.8574
2023-05-04T19:25:45.203Z,18.8708
2023-05-04T19:26:45.609Z,18.8426
2023-05-04T19:27:47.062Z,18.8933
2023-05-04T19:28:47.639Z,18.9104
2023-05-04T19:29:47.959Z,18.8674
2023-05-04T19:30:48.743Z,18.8342
2023-05-04T19:31:49.626Z,18.8296
2023-05-04T19:32:49.819Z,18.8780
2023-05-04T19:33:50.890Z,18.9334
2023-05-04T19:34:51.823Z,18.9937
2023-05-04T19:35:52.246Z,19.0293
2023-05-04T19:36:52.916Z,19.1239
2023-05-04T19:37:53.339Z,18.9377
2023-05-04T19:38:54.110Z,18.9525
2023-05-04T19:39:54.881Z,18.9144
2023-05-04T19:40:55.262Z,18.9474
2023-05-04T19:41:55.834Z,18.9440
2023-05-04T19:42:56.432Z,18.9495
2023-05-04T19:43:56.931Z,18.9573
2023-05-04T19:44:57.697Z,18.9585
2023-05-04T19:45:58.149Z,18.9707
2023-05-04T19:46:58.918Z,18.9277
2023-05-04T19:47:59.765Z,18.8858
2023-05-04T19:49:00.162Z,18.8491
2023-05-04T19:50:00.979Z,18.8477
2023-05-04T19:52:01.156Z,18.8493
2023-05-04T19:53:01.703Z,18.8250
2023-05-04T19:54:02.080Z,18.7708
2023-05-04T19:55:02.750Z,18.7610
2023-05-04T19:56:03.373Z,18.8224
2023-05-04T19:57:03.853Z,18.8950
2023-05-04T19:58:04.421Z,18.9182
2023-05-04T19:59:04.950Z,18.9351
2023-05-04T20:00:05.421Z,18.9190
2023-05-04T20:01:06.140Z,18.8499
2023-05-04T20:02:06.910Z,18.8106
2023-05-04T20:03:07.703Z,18.7942
2023-05-04T20:04:08.427Z,18.8150
2023-05-04T20:05:08.837Z,18.7572
2023-05-04T20:06:09.278Z,18.7111
2023-05-04T20:07:09.851Z,18.7501
2023-05-04T20:08:10.428Z,18.7222
2023-05-04T20:09:11.126Z,18.7088
2023-05-04T20:10:12.389Z,18.6948
2023-05-04T20:11:12.735Z,18.6897
2023-05-04T20:12:13.355Z,18.6911
2023-05-04T20:13:14.480Z,18.6649
2023-05-04T20:14:14.857Z,18.6058
2023-05-04T20:15:15.472Z,18.6302
2023-05-04T20:16:16.238Z,18.5162
2023-05-04T20:17:16.949Z,18.4830
2023-05-04T20:18:17.685Z,18.5367
2023-05-04T20:19:18.074Z,18.5568
2023-05-04T20:20:18.644Z,18.5183
2023-05-04T20:21:19.083Z,18.5195
2023-05-04T20:22:19.470Z,18.5372
2023-05-04T20:23:20.141Z,18.4763
2023-05-04T20:24:20.771Z,18.4249
2023-05-04T20:25:21.156Z,18.4277
2023-05-04T20:26:22.729Z,18.4049
2023-05-04T20:27:23.185Z,18.3622
2023-05-04T20:30:23.717Z,18.3784
2023-05-04T20:31:24.808Z,18.3250
2023-05-04T20:32:25.495Z,18.2862
2023-05-04T20:33:25.478Z,18.2790
2023-05-04T20:34:26.583Z,18.2567
2023-05-04T20:37:36.853Z,18.2263
2023-05-04T20:38:37.944Z,18.1785
2023-05-04T20:41:04.770Z,18.1544
2023-05-04T20:42:05.443Z,18.0834
2023-05-04T20:43:05.874Z,18.0700
2023-05-04T20:44:06.400Z,18.0490
2023-05-04T20:45:07.167Z,18.0219
2023-05-04T20:46:07.765Z,17.9887
2023-05-04T20:47:08.713Z,17.9204
2023-05-04T20:48:09.732Z,17.8967
2023-05-04T20:49:10.317Z,17.8693
2023-05-04T20:51:14.650Z,17.7552
2023-05-04T20:52:12.116Z,17.7246
2023-05-04T20:53:12.673Z,17.6991
2023-05-04T20:54:13.331Z,17.6607
2023-05-04T20:55:14.864Z,17.5860
2023-05-04T20:56:16.128Z,17.5649
2023-05-04T20:58:16.397Z,17.4565
2023-05-04T20:59:17.037Z,17.4333
2023-05-04T21:00:17.631Z,17.3718
2023-05-04T21:01:18.888Z,17.2919
2023-05-04T21:04:18.753Z,17.1370
2023-05-04T21:05:19.286Z,17.1225
2023-05-04T21:06:19.879Z,17.1832
2023-05-04T21:07:20.412Z,17.1867
2023-05-04T21:08:20.922Z,17.1835
2023-05-04T21:09:21.382Z,17.2633
2023-05-04T21:10:22.088Z,17.2865
2023-05-04T21:11:22.825Z,17.2354
2023-05-04T21:12:23.354Z,17.2562
2023-05-04T21:13:24.259Z,17.1501
2023-05-04T21:14:24.726Z,17.0647
2023-05-04T21:15:25.303Z,16.8946
2023-05-04T21:16:26.228Z,16.7141
2023-05-04T21:17:26.643Z,16.7462
2023-05-04T21:18:27.331Z,16.4882
2023-05-04T21:19:28.153Z,16.3236
2023-05-04T21:20:29.161Z,16.3531
2023-05-04T21:21:29.954Z,16.2373
2023-05-04T21:22:30.662Z,16.1547
2023-05-04T21:23:31.287Z,16.2035
2023-05-04T21:24:32.288Z,16.1050
2023-05-04T21:25:32.889Z,16.0934
2023-05-04T21:26:33.558Z,16.0390
2023-05-04T21:27:34.204Z,16.0174
2023-05-04T21:28:34.261Z,15.9925
2023-05-04T21:29:34.977Z,15.9676
2023-05-04T21:30:35.712Z,15.9419
2023-05-04T21:31:36.397Z,15.9446
2023-05-04T21:32:37.639Z,15.9367
2023-05-04T21:33:38.694Z,15.9098
2023-05-04T21:34:39.322Z,15.8836
2023-05-04T21:35:40.037Z,15.9866
2023-05-04T21:36:40.620Z,15.9756
2023-05-04T21:37:41.239Z,15.9978
2023-05-04T21:38:43.078Z,15.9546
2023-05-04T21:39:43.356Z,15.9589
2023-05-04T21:40:43.526Z,15.9435
2023-05-04T21:41:44.099Z,15.8858
2023-05-04T21:42:44.778Z,15.9393
2023-05-04T21:43:45.546Z,15.8965
2023-05-04T21:44:46.033Z,15.9167
2023-05-04T21:45:47.316Z,15.9055
2023-05-04T21:46:48.464Z,15.8780
2023-05-04T21:48:59.584Z,15.8394
2023-05-04T21:50:00.429Z,15.8201
2023-05-04T21:51:00.916Z,15.7802
2023-05-04T21:52:01.639Z,15.7599
2023-05-04T21:53:02.369Z,15.7568
2023-05-04T21:54:03.719Z,15.7080
2023-05-04T21:55:03.171Z,15.6583
2023-05-04T21:56:03.686Z,15.6289
2023-05-04T21:57:04.361Z,15.6118
2023-05-04T21:58:05.135Z,15.5690
2023-05-04T21:59:06.812Z,15.5250
2023-05-04T22:01:06.446Z,15.4392
2023-05-04T22:02:07.644Z,15.4673
2023-05-04T22:03:08.526Z,15.3935
2023-05-04T22:04:09.276Z,15.3508
2023-05-04T22:05:10.113Z,15.3675
2023-05-04T22:06:10.850Z,15.3177
2023-05-04T22:07:11.614Z,15.2782
2023-05-04T22:08:12.587Z,15.3077
2023-05-04T22:09:13.109Z,15.3482
2023-05-04T22:10:14.255Z,15.5003
2023-05-04T22:11:15.204Z,15.4738
2023-05-04T22:12:15.631Z,15.4716
2023-05-04T22:13:16.428Z,15.4847
2023-05-04T22:14:17.083Z,15.5218
2023-05-04T22:15:17.559Z,15.5301
2023-05-04T22:16:18.482Z,15.5380
2023-05-04T22:17:19.597Z,15.6035
2023-05-04T22:18:20.572Z,15.5953
2023-05-04T22:19:21.328Z,15.5454
2023-05-04T22:20:22.263Z,15.5112
2023-05-04T22:21:22.852Z,15.4953
2023-05-04T22:22:23.547Z,15.5086
2023-05-04T22:23:24.174Z,15.4877
2023-05-04T22:24:24.856Z,15.5590
2023-05-04T22:25:25.230Z,15.5675
2023-05-04T22:26:26.010Z,15.6474
2023-05-04T22:27:27.235Z,15.6087
2023-05-04T22:28:27.984Z,15.5890
2023-05-04T22:29:28.436Z,15.5435
2023-05-04T22:30:29.147Z,15.5568
2023-05-04T22:31:30.019Z,15.6156
2023-05-04T22:32:30.972Z,15.6172
2023-05-04T22:33:31.967Z,15.7392
2023-05-04T22:34:32.569Z,15.8565
2023-05-04T22:35:33.345Z,16.1401
2023-05-04T22:36:34.556Z,16.2300
2023-05-04T22:37:35.786Z,16.2957
2023-05-04T22:38:36.600Z,16.1758
2023-05-04T22:39:37.095Z,16.1511
2023-05-04T22:40:39.288Z,16.1851
2023-05-04T22:41:38.583Z,16.1469
2023-05-04T22:42:39.217Z,16.1863
2023-05-04T22:43:39.938Z,16.3195
2023-05-04T22:44:41.308Z,16.3861
2023-05-04T22:45:40.551Z,16.3153
2023-05-04T22:47:24.167Z,16.3595
2023-05-04T22:48:24.449Z,16.3713
2023-05-04T22:49:26.017Z,16.3375
2023-05-04T22:51:25.681Z,16.2498
2023-05-04T22:52:27.543Z,16.2187
2023-05-04T22:54:27.150Z,16.2756
2023-05-04T22:55:27.713Z,16.2163
2023-05-04T22:56:28.114Z,16.1294
2023-05-04T22:57:28.899Z,16.1485
2023-05-04T22:58:29.590Z,16.1761
2023-05-04T22:59:29.860Z,16.1630
2023-05-04T23:00:30.694Z,16.1868
2023-05-04T23:01:31.699Z,16.1558
2023-05-04T23:02:31.685Z,16.1839
2023-05-04T23:03:32.097Z,16.4171
2023-05-04T23:04:33.065Z,16.6760
2023-05-04T23:05:33.684Z,16.5661
2023-05-04T23:06:34.332Z,16.5053
2023-05-04T23:07:34.816Z,16.3508
2023-05-04T23:08:35.666Z,16.2740
2023-05-04T23:09:36.090Z,16.2357
2023-05-04T23:10:37.426Z,16.1410
2023-05-04T23:11:38.119Z,16.0027
2023-05-04T23:12:38.782Z,15.9519
2023-05-04T23:13:39.664Z,15.8790
2023-05-04T23:14:40.408Z,15.8207
2023-05-04T23:15:40.870Z,15.7398
2023-05-04T23:16:41.732Z,15.6857
2023-05-04T23:17:42.554Z,15.6592
2023-05-04T23:18:43.236Z,15.5886
2023-05-04T23:19:43.825Z,15.5696
2023-05-04T23:20:44.276Z,15.5683
2023-05-04T23:21:44.919Z,15.6576
2023-05-04T23:22:45.547Z,15.5524
2023-05-04T23:23:46.007Z,15.5645
2023-05-04T23:24:46.777Z,15.5615
2023-05-04T23:25:47.477Z,15.5661
2023-05-04T23:26:47.987Z,15.6089
2023-05-04T23:27:48.741Z,15.6271
2023-05-04T23:28:49.150Z,15.6173
2023-05-04T23:29:49.829Z,15.6750
2023-05-04T23:30:50.425Z,15.6573
2023-05-04T23:31:51.253Z,15.7441
2023-05-04T23:32:52.216Z,15.9408
2023-05-04T23:33:53.135Z,16.0154
2023-05-04T23:34:53.760Z,15.9739
2023-05-04T23:35:54.536Z,15.9450
2023-05-04T23:36:55.129Z,16.0250
2023-05-04T23:37:55.896Z,16.0149
2023-05-04T23:38:56.914Z,16.0281
2023-05-04T23:39:57.449Z,16.0533
2023-05-04T23:40:58.626Z,16.1339
2023-05-04T23:41:59.303Z,16.1448